Terminal Aerodrome Forecast
Issued by NWS

Home | Current Version | Previous Version | Text Only | Print | Product List | Glossary On
Versions: 1 2 3 4 5 6 7 8 9 10 11 12 13 14 15
000
FTUS44 KJAN 260531
TAFGTR
TAF
KGTR 260531Z 2606/2706 08006KT P6SM VCSH OVC050
     FM260900 06006KT 5SM -SHRA BR OVC035
     FM261100 13008KT 3SM -SHRA BR BKN015
     FM261300 20009KT P6SM VCSH BKN008
     FM261500 28011G21KT P6SM VCSH BKN015
     FM261800 29010KT P6SM VCSH BKN025
     FM270200 32008KT P6SM SCT025 BKN050=

USA.gov is the U.S. government's official web portal to all federal, state and local government web resources and services.